sensor_id;sensor_type;location;lat;lon;timestamp;pressure;altitude;pressure_sealevel;temperature;humidity
55757;BME280;41676;44.610;44.078;2023-02-01T00:00:33;99699.28;;;2.56;98.15
55757;BME280;41676;44.610;44.078;2023-02-01T00:05:34;99682.69;;;2.46;98.42
55757;BME280;41676;44.610;44.078;2023-02-01T00:10:35;99735.81;;;2.79;98.06
55757;BME280;41676;44.610;44.078;2023-02-01T00:15:36;99792.25;;;3.13;98.73
55757;BME280;41676;44.610;44.078;2023-02-01T00:20:37;99749.66;;;2.90;99.44
55757;BME280;41676;44.610;44.078;2023-02-01T00:25:37;99793.06;;;3.14;99.31
55757;BME280;41676;44.610;44.078;2023-02-01T00:30:38;99776.22;;;3.07;98.89
55757;BME280;41676;44.610;44.078;2023-02-01T00:35:39;99784.22;;;3.05;99.64
55757;BME280;41676;44.610;44.078;2023-02-01T00:40:40;99790.56;;;3.03;99.70
55757;BME280;41676;44.610;44.078;2023-02-01T00:45:41;99776.72;;;2.91;100.00
55757;BME280;41676;44.610;44.078;2023-02-01T00:50:42;99782.53;;;2.94;100.00
55757;BME280;41676;44.610;44.078;2023-02-01T00:55:47;99759.81;;;2.84;100.00
55757;BME280;41676;44.610;44.078;2023-02-01T01:00:48;99695.09;;;2.44;100.00
55757;BME280;41676;44.610;44.078;2023-02-01T01:05:49;99743.25;;;2.73;100.00
55757;BME280;41676;44.610;44.078;2023-02-01T01:10:50;99683.22;;;2.40;100.00
55757;BME280;41676;44.610;44.078;2023-02-01T01:15:51;99747.50;;;2.74;100.00
55757;BME280;41676;44.610;44.078;2023-02-01T01:20:51;99775.31;;;2.87;100.00
55757;BME280;41676;44.610;44.078;2023-02-01T01:25:52;99651.81;;;2.19;100.00
55757;BME280;41676;44.610;44.078;2023-02-01T01:30:53;99775.03;;;2.90;100.00
55757;BME280;41676;44.610;44.078;2023-02-01T01:35:54;99697.28;;;2.39;100.00
55757;BME280;41676;44.610;44.078;2023-02-01T01:40:55;99747.38;;;2.66;100.00
55757;BME280;41676;44.610;44.078;2023-02-01T01:45:55;99791.72;;;2.79;100.00
55757;BME280;41676;44.610;44.078;2023-02-01T01:51:04;99782.28;;;2.67;100.00
55757;BME280;41676;44.610;44.078;2023-02-01T01:56:07;99764.38;;;2.51;100.00
55757;BME280;41676;44.610;44.078;2023-02-01T02:01:08;99793.59;;;2.67;100.00
55757;BME280;41676;44.610;44.078;2023-02-01T02:06:37;99772.13;;;2.53;100.00
55757;BME280;41676;44.610;44.078;2023-02-01T02:11:39;99744.84;;;2.34;100.00
55757;BME280;41676;44.610;44.078;2023-02-01T02:16:55;99726.28;;;2.16;100.00
55757;BME280;41676;44.610;44.078;2023-02-01T02:43:38;99776.25;;;2.24;100.00
55757;BME280;41676;44.610;44.078;2023-02-01T02:49:18;99759.25;;;1.98;100.00
55757;BME280;41676;44.610;44.078;2023-02-01T02:54:28;99797.66;;;2.29;100.00
55757;BME280;41676;44.610;44.078;2023-02-01T02:59:52;99737.19;;;1.79;100.00
55757;BME280;41676;44.610;44.078;2023-02-01T03:05:12;99742.88;;;1.85;100.00
55757;BME280;41676;44.610;44.078;2023-02-01T03:16:09;99758.75;;;1.83;100.00
55757;BME280;41676;44.610;44.078;2023-02-01T03:20:44;99847.59;;;2.28;100.00
55757;BME280;41676;44.610;44.078;2023-02-01T03:43:02;99834.75;;;2.46;100.00
55757;BME280;41676;44.610;44.078;2023-02-01T03:48:06;99850.47;;;2.46;100.00
55757;BME280;41676;44.610;44.078;2023-02-01T03:53:11;99824.06;;;2.17;100.00
55757;BME280;41676;44.610;44.078;2023-02-01T03:58:18;99825.59;;;2.19;100.00
55757;BME280;41676;44.610;44.078;2023-02-01T04:03:19;99874.25;;;2.54;100.00
55757;BME280;41676;44.610;44.078;2023-02-01T04:08:22;99865.44;;;2.34;100.00
55757;BME280;41676;44.610;44.078;2023-02-01T04:13:23;99876.16;;;2.31;100.00
55757;BME280;41676;44.610;44.078;2023-02-01T04:18:24;99809.03;;;1.98;100.00
55757;BME280;41676;44.610;44.078;2023-02-01T04:23:25;99826.78;;;2.15;100.00
55757;BME280;41676;44.610;44.078;2023-02-01T04:28:26;99884.91;;;2.41;100.00
55757;BME280;41676;44.610;44.078;2023-02-01T04:33:26;99809.78;;;1.89;100.00
55757;BME280;41676;44.610;44.078;2023-02-01T04:38:27;99861.47;;;2.19;100.00
55757;BME280;41676;44.610;44.078;2023-02-01T04:43:29;99761.22;;;1.52;100.00
55757;BME280;41676;44.610;44.078;2023-02-01T04:48:30;99819.56;;;1.87;100.00
55757;BME280;41676;44.610;44.078;2023-02-01T04:53:31;99917.94;;;2.44;100.00
55757;BME280;41676;44.610;44.078;2023-02-01T04:58:32;99931.34;;;2.50;100.00
55757;BME280;41676;44.610;44.078;2023-02-01T05:03:33;99880.13;;;2.25;100.00
55757;BME280;41676;44.610;44.078;2023-02-01T05:08:34;99869.69;;;2.35;100.00
55757;BME280;41676;44.610;44.078;2023-02-01T05:13:35;99918.41;;;2.70;100.00
55757;BME280;41676;44.610;44.078;2023-02-01T05:18:51;99932.19;;;2.72;100.00
55757;BME280;41676;44.610;44.078;2023-02-01T05:23:51;99940.72;;;2.85;100.00
55757;BME280;41676;44.610;44.078;2023-02-01T05:29:10;99944.16;;;2.86;100.00
55757;BME280;41676;44.610;44.078;2023-02-01T05:34:12;99948.53;;;2.96;100.00
55757;BME280;41676;44.610;44.078;2023-02-01T05:39:13;99942.13;;;2.89;100.00
55757;BME280;41676;44.610;44.078;2023-02-01T05:44:14;99944.78;;;2.78;100.00
55757;BME280;41676;44.610;44.078;2023-02-01T05:49:15;99924.91;;;2.55;100.00
55757;BME280;41676;44.610;44.078;2023-02-01T05:54:15;99949.94;;;2.80;100.00
55757;BME280;41676;44.610;44.078;2023-02-01T05:59:16;99948.13;;;2.80;100.00
55757;BME280;41676;44.610;44.078;2023-02-01T06:04:17;99968.50;;;3.09;100.00
55757;BME280;41676;44.610;44.078;2023-02-01T06:09:17;99903.53;;;2.80;100.00
55757;BME280;41676;44.610;44.078;2023-02-01T06:14:18;99981.34;;;3.33;100.00
55757;BME280;41676;44.610;44.078;2023-02-01T06:19:19;99996.22;;;3.53;100.00
55757;BME280;41676;44.610;44.078;2023-02-01T06:24:20;99962.53;;;3.37;100.00
55757;BME280;41676;44.610;44.078;2023-02-01T06:29:20;100002.00;;;3.47;100.00
55757;BME280;41676;44.610;44.078;2023-02-01T06:34:21;99921.00;;;3.12;100.00
55757;BME280;41676;44.610;44.078;2023-02-01T06:39:23;99919.91;;;3.14;100.00
55757;BME280;41676;44.610;44.078;2023-02-01T06:44:24;99974.84;;;3.67;100.00
55757;BME280;41676;44.610;44.078;2023-02-01T06:49:24;99946.88;;;3.57;100.00
55757;BME280;41676;44.610;44.078;2023-02-01T06:54:26;99982.25;;;3.93;100.00
55757;BME280;41676;44.610;44.078;2023-02-01T06:59:27;99986.53;;;3.94;100.00
55757;BME280;41676;44.610;44.078;2023-02-01T07:04:28;99984.47;;;3.98;100.00
55757;BME280;41676;44.610;44.078;2023-02-01T07:09:28;100002.47;;;4.02;100.00
55757;BME280;41676;44.610;44.078;2023-02-01T07:14:29;99978.81;;;4.02;100.00
55757;BME280;41676;44.610;44.078;2023-02-01T07:19:30;99937.97;;;3.88;99.45
55757;BME280;41676;44.610;44.078;2023-02-01T07:24:30;99986.06;;;4.20;99.42
55757;BME280;41676;44.610;44.078;2023-02-01T07:29:31;99966.50;;;4.03;99.18
55757;BME280;41676;44.610;44.078;2023-02-01T07:34:32;99979.53;;;4.14;99.26
55757;BME280;41676;44.610;44.078;2023-02-01T07:39:33;99977.19;;;4.30;99.04
55757;BME280;41676;44.610;44.078;2023-02-01T07:44:34;100001.88;;;4.58;98.41
55757;BME280;41676;44.610;44.078;2023-02-01T07:49:35;99976.94;;;4.63;98.59
55757;BME280;41676;44.610;44.078;2023-02-01T07:54:36;99914.66;;;4.34;97.40
55757;BME280;41676;44.610;44.078;2023-02-01T07:59:36;99966.84;;;4.77;97.37
55757;BME280;41676;44.610;44.078;2023-02-01T08:04:57;99950.09;;;4.59;96.39
55757;BME280;41676;44.610;44.078;2023-02-01T08:09:58;99973.88;;;4.96;96.51
55757;BME280;41676;44.610;44.078;2023-02-01T08:15:00;99946.31;;;5.00;95.63
55757;BME280;41676;44.610;44.078;2023-02-01T08:20:01;99986.25;;;5.43;95.22
55757;BME280;41676;44.610;44.078;2023-02-01T08:25:01;99915.00;;;4.97;94.79
55757;BME280;41676;44.610;44.078;2023-02-01T08:30:04;99981.38;;;5.48;95.02
55757;BME280;41676;44.610;44.078;2023-02-01T08:35:05;99954.38;;;5.36;94.19
55757;BME280;41676;44.610;44.078;2023-02-01T08:40:07;99926.78;;;5.40;94.07
55757;BME280;41676;44.610;44.078;2023-02-01T08:45:08;99949.00;;;5.65;93.32
55757;BME280;41676;44.610;44.078;2023-02-01T08:50:10;99891.41;;;5.43;91.72
55757;BME280;41676;44.610;44.078;2023-02-01T08:55:11;99915.94;;;5.71;91.54
55757;BME280;41676;44.610;44.078;2023-02-01T09:00:15;99920.31;;;5.80;90.55
55757;BME280;41676;44.610;44.078;2023-02-01T09:05:16;99924.78;;;5.80;90.55
55757;BME280;41676;44.610;44.078;2023-02-01T09:10:19;99930.50;;;6.03;90.68
55757;BME280;41676;44.610;44.078;2023-02-01T09:15:20;99846.72;;;5.51;89.59
55757;BME280;41676;44.610;44.078;2023-02-01T09:20:21;99931.50;;;6.02;89.92
55757;BME280;41676;44.610;44.078;2023-02-01T09:25:24;99843.44;;;5.67;89.40
55757;BME280;41676;44.610;44.078;2023-02-01T09:30:25;99832.00;;;5.76;88.72
55757;BME280;41676;44.610;44.078;2023-02-01T09:35:26;99918.16;;;6.21;88.41
55757;BME280;41676;44.610;44.078;2023-02-01T09:40:26;99872.41;;;5.94;88.50
55757;BME280;41676;44.610;44.078;2023-02-01T09:45:43;99900.91;;;6.27;87.55
55757;BME280;41676;44.610;44.078;2023-02-01T09:50:56;99905.06;;;6.29;87.67
55757;BME280;41676;44.610;44.078;2023-02-01T09:56:05;99887.69;;;6.45;86.89
55757;BME280;41676;44.610;44.078;2023-02-01T10:01:23;99879.09;;;6.43;85.07
55757;BME280;41676;44.610;44.078;2023-02-01T10:22:40;99877.47;;;6.94;84.15
55757;BME280;41676;44.610;44.078;2023-02-01T10:27:45;99871.22;;;6.95;85.24
55757;BME280;41676;44.610;44.078;2023-02-01T10:32:49;99868.72;;;6.93;84.77
55757;BME280;41676;44.610;44.078;2023-02-01T10:37:52;99871.06;;;6.96;84.39
55757;BME280;41676;44.610;44.078;2023-02-01T10:43:02;99852.31;;;6.81;82.58
55757;BME280;41676;44.610;44.078;2023-02-01T10:48:03;99863.56;;;6.57;84.24
55757;BME280;41676;44.610;44.078;2023-02-01T10:58:20;99832.59;;;6.42;84.46
55757;BME280;41676;44.610;44.078;2023-02-01T11:03:44;99860.53;;;6.70;84.06
55757;BME280;41676;44.610;44.078;2023-02-01T11:08:54;99800.78;;;6.69;83.34
55757;BME280;41676;44.610;44.078;2023-02-01T11:18:58;99773.75;;;6.75;82.27
55757;BME280;41676;44.610;44.078;2023-02-01T11:24:03;99779.28;;;6.56;80.43
55757;BME280;41676;44.610;44.078;2023-02-01T11:29:11;99883.31;;;6.97;81.20
55757;BME280;41676;44.610;44.078;2023-02-01T11:34:24;99821.38;;;6.39;82.40
55757;BME280;41676;44.610;44.078;2023-02-01T11:39:29;99799.56;;;5.93;81.72
55757;BME280;41676;44.610;44.078;2023-02-01T11:49:33;99864.06;;;6.17;82.64
55757;BME280;41676;44.610;44.078;2023-02-01T12:05:25;99838.47;;;5.64;81.68
55757;BME280;41676;44.610;44.078;2023-02-01T12:16:15;99887.25;;;5.68;82.25
55757;BME280;41676;44.610;44.078;2023-02-01T12:26:44;99903.28;;;5.57;81.95
55757;BME280;41676;44.610;44.078;2023-02-01T12:32:05;99910.50;;;5.55;81.85
55757;BME280;41676;44.610;44.078;2023-02-01T12:42:24;99895.44;;;5.37;82.77
55757;BME280;41676;44.610;44.078;2023-02-01T12:47:39;99893.22;;;5.42;82.19
55757;BME280;41676;44.610;44.078;2023-02-01T12:52:48;99908.16;;;5.52;82.14
55757;BME280;41676;44.610;44.078;2023-02-01T12:57:56;99881.59;;;5.35;82.21
55757;BME280;41676;44.610;44.078;2023-02-01T13:03:34;99917.81;;;5.61;82.85
55757;BME280;41676;44.610;44.078;2023-02-01T13:09:07;99914.78;;;5.56;82.56
55757;BME280;41676;44.610;44.078;2023-02-01T13:14:33;99913.06;;;5.37;82.38
55757;BME280;41676;44.610;44.078;2023-02-01T13:19:47;99889.88;;;5.13;83.29
55757;BME280;41676;44.610;44.078;2023-02-01T13:25:03;99913.41;;;5.24;84.10
55757;BME280;41676;44.610;44.078;2023-02-01T13:30:27;99922.16;;;5.15;83.04
55757;BME280;41676;44.610;44.078;2023-02-01T13:35:49;99914.22;;;5.24;83.71
55757;BME280;41676;44.610;44.078;2023-02-01T13:46:19;99928.09;;;5.17;84.19
55757;BME280;41676;44.610;44.078;2023-02-01T13:51:45;99942.66;;;5.21;84.35
55757;BME280;41676;44.610;44.078;2023-02-01T13:56:47;99911.09;;;5.01;83.63
55757;BME280;41676;44.610;44.078;2023-02-01T14:01:48;99909.78;;;4.88;84.06
55757;BME280;41676;44.610;44.078;2023-02-01T14:06:51;99799.97;;;4.14;84.75
55757;BME280;41676;44.610;44.078;2023-02-01T14:11:54;99878.53;;;4.55;84.14
55757;BME280;41676;44.610;44.078;2023-02-01T14:21:59;99945.75;;;4.87;85.31
55757;BME280;41676;44.610;44.078;2023-02-01T14:32:20;99965.03;;;4.88;85.95
55757;BME280;41676;44.610;44.078;2023-02-01T14:42:45;99881.16;;;4.36;86.08
55757;BME280;41676;44.610;44.078;2023-02-01T15:08:57;99943.31;;;4.56;85.72
55757;BME280;41676;44.610;44.078;2023-02-01T15:13:58;99940.53;;;4.48;85.73
55757;BME280;41676;44.610;44.078;2023-02-01T15:19:08;99981.09;;;4.65;85.81
55757;BME280;41676;44.610;44.078;2023-02-01T15:24:18;99996.91;;;4.55;86.65
55757;BME280;41676;44.610;44.078;2023-02-01T15:29:21;99983.03;;;4.34;87.28
55757;BME280;41676;44.610;44.078;2023-02-01T15:34:22;99960.31;;;4.14;86.95
55757;BME280;41676;44.610;44.078;2023-02-01T15:39:24;99985.06;;;4.21;87.70
55757;BME280;41676;44.610;44.078;2023-02-01T15:44:42;99992.00;;;4.22;88.62
55757;BME280;41676;44.610;44.078;2023-02-01T15:49:51;99935.16;;;3.71;88.67
55757;BME280;41676;44.610;44.078;2023-02-01T15:54:55;100016.72;;;4.09;89.14
55757;BME280;41676;44.610;44.078;2023-02-01T16:00:00;99995.13;;;3.96;89.30
55757;BME280;41676;44.610;44.078;2023-02-01T16:05:01;100021.34;;;4.17;89.16
55757;BME280;41676;44.610;44.078;2023-02-01T16:10:23;100014.91;;;4.00;90.59
55757;BME280;41676;44.610;44.078;2023-02-01T16:15:25;100028.19;;;3.99;89.89
55757;BME280;41676;44.610;44.078;2023-02-01T16:20:26;99981.50;;;3.72;90.06
55757;BME280;41676;44.610;44.078;2023-02-01T16:25:27;100009.25;;;3.95;90.42
55757;BME280;41676;44.610;44.078;2023-02-01T16:30:28;99913.34;;;3.30;90.84
55757;BME280;41676;44.610;44.078;2023-02-01T16:35:36;99892.94;;;3.12;91.34
55757;BME280;41676;44.610;44.078;2023-02-01T16:40:37;99966.53;;;3.62;91.06
55757;BME280;41676;44.610;44.078;2023-02-01T16:45:38;99936.00;;;3.31;92.14
55757;BME280;41676;44.610;44.078;2023-02-01T16:50:48;100002.25;;;3.75;92.82
55757;BME280;41676;44.610;44.078;2023-02-01T16:55:49;100006.69;;;3.74;92.61
55757;BME280;41676;44.610;44.078;2023-02-01T17:00:52;100015.56;;;3.83;92.71
55757;BME280;41676;44.610;44.078;2023-02-01T17:05:55;100021.66;;;3.83;92.83
55757;BME280;41676;44.610;44.078;2023-02-01T17:10:57;100021.50;;;3.85;92.39
55757;BME280;41676;44.610;44.078;2023-02-01T17:16:02;100024.94;;;3.85;93.59
55757;BME280;41676;44.610;44.078;2023-02-01T17:21:04;100004.72;;;3.76;93.55
55757;BME280;41676;44.610;44.078;2023-02-01T17:26:09;100030.53;;;3.92;93.12
55757;BME280;41676;44.610;44.078;2023-02-01T17:31:11;100022.69;;;4.02;93.81
55757;BME280;41676;44.610;44.078;2023-02-01T17:36:16;99987.59;;;3.72;93.41
55757;BME280;41676;44.610;44.078;2023-02-01T17:41:17;99950.41;;;3.46;93.11
55757;BME280;41676;44.610;44.078;2023-02-01T17:46:18;99937.56;;;3.43;93.57
55757;BME280;41676;44.610;44.078;2023-02-01T17:51:25;100011.81;;;3.85;93.80
55757;BME280;41676;44.610;44.078;2023-02-01T17:56:29;100013.63;;;3.85;94.12
55757;BME280;41676;44.610;44.078;2023-02-01T18:01:31;99931.44;;;3.33;94.11
55757;BME280;41676;44.610;44.078;2023-02-01T18:06:33;99913.78;;;3.14;94.73
55757;BME280;41676;44.610;44.078;2023-02-01T18:11:34;99975.22;;;3.53;95.23
55757;BME280;41676;44.610;44.078;2023-02-01T18:16:35;99941.66;;;3.26;95.11
55757;BME280;41676;44.610;44.078;2023-02-01T18:21:39;100026.28;;;3.70;95.90
55757;BME280;41676;44.610;44.078;2023-02-01T18:26:42;100022.81;;;3.70;95.99
55757;BME280;41676;44.610;44.078;2023-02-01T18:31:47;99992.44;;;3.46;96.74
55757;BME280;41676;44.610;44.078;2023-02-01T18:36:51;100014.34;;;3.56;96.55
55757;BME280;41676;44.610;44.078;2023-02-01T18:41:53;100027.00;;;3.72;96.87
55757;BME280;41676;44.610;44.078;2023-02-01T18:46:53;99972.22;;;3.37;97.10
55757;BME280;41676;44.610;44.078;2023-02-01T18:51:54;100022.81;;;3.70;97.40
55757;BME280;41676;44.610;44.078;2023-02-01T18:56:55;99983.34;;;3.50;97.57
55757;BME280;41676;44.610;44.078;2023-02-01T19:01:56;99921.38;;;3.07;97.92
55757;BME280;41676;44.610;44.078;2023-02-01T19:06:56;100022.72;;;3.71;98.49
55757;BME280;41676;44.610;44.078;2023-02-01T19:11:57;100006.34;;;3.67;98.47
55757;BME280;41676;44.610;44.078;2023-02-01T19:16:58;99917.84;;;3.18;98.15
55757;BME280;41676;44.610;44.078;2023-02-01T19:21:59;99996.78;;;3.57;99.05
55757;BME280;41676;44.610;44.078;2023-02-01T19:26:59;99980.03;;;3.48;98.86
55757;BME280;41676;44.610;44.078;2023-02-01T19:32:00;99995.16;;;3.65;98.98
55757;BME280;41676;44.610;44.078;2023-02-01T19:37:01;99985.28;;;3.48;99.49
55757;BME280;41676;44.610;44.078;2023-02-01T19:42:03;99972.25;;;3.47;99.61
55757;BME280;41676;44.610;44.078;2023-02-01T19:47:04;99906.91;;;3.13;100.00
55757;BME280;41676;44.610;44.078;2023-02-01T19:52:05;99906.63;;;3.16;100.00
55757;BME280;41676;44.610;44.078;2023-02-01T19:57:06;99966.75;;;3.50;99.77
55757;BME280;41676;44.610;44.078;2023-02-01T20:02:12;99948.66;;;3.26;100.00
55757;BME280;41676;44.610;44.078;2023-02-01T20:07:13;99947.31;;;3.31;100.00
55757;BME280;41676;44.610;44.078;2023-02-01T20:12:14;99983.63;;;3.47;100.00
55757;BME280;41676;44.610;44.078;2023-02-01T20:17:15;100011.47;;;3.59;100.00
55757;BME280;41676;44.610;44.078;2023-02-01T20:22:17;99991.34;;;3.49;100.00
55757;BME280;41676;44.610;44.078;2023-02-01T20:27:19;100010.47;;;3.60;100.00
55757;BME280;41676;44.610;44.078;2023-02-01T20:32:20;100018.88;;;3.54;99.90
55757;BME280;41676;44.610;44.078;2023-02-01T20:37:23;100025.91;;;3.44;99.76
55757;BME280;41676;44.610;44.078;2023-02-01T20:42:24;100009.91;;;3.26;100.00
55757;BME280;41676;44.610;44.078;2023-02-01T20:47:24;99993.56;;;3.02;99.56
55757;BME280;41676;44.610;44.078;2023-02-01T20:52:25;99991.38;;;2.86;99.57
55757;BME280;41676;44.610;44.078;2023-02-01T20:57:26;99975.78;;;2.63;99.43
55757;BME280;41676;44.610;44.078;2023-02-01T21:02:27;100005.97;;;2.79;99.40
55757;BME280;41676;44.610;44.078;2023-02-01T21:07:27;100021.66;;;2.90;99.41
55757;BME280;41676;44.610;44.078;2023-02-01T21:12:28;99865.97;;;1.85;99.25
55757;BME280;41676;44.610;44.078;2023-02-01T21:17:30;99916.78;;;2.04;98.69
55757;BME280;41676;44.610;44.078;2023-02-01T21:22:31;99925.94;;;1.99;98.68
55757;BME280;41676;44.610;44.078;2023-02-01T21:27:32;100005.34;;;2.22;99.00
55757;BME280;41676;44.610;44.078;2023-02-01T21:32:33;100014.53;;;2.05;98.63
55757;BME280;41676;44.610;44.078;2023-02-01T21:37:34;100009.78;;;1.99;98.69
55757;BME280;41676;44.610;44.078;2023-02-01T21:42:35;100033.94;;;2.25;98.70
55757;BME280;41676;44.610;44.078;2023-02-01T21:47:37;100039.97;;;2.37;98.35
55757;BME280;41676;44.610;44.078;2023-02-01T21:52:38;100028.31;;;2.29;98.01
55757;BME280;41676;44.610;44.078;2023-02-01T21:57:39;100028.38;;;2.39;97.53
55757;BME280;41676;44.610;44.078;2023-02-01T22:02:40;100040.53;;;2.51;97.47
55757;BME280;41676;44.610;44.078;2023-02-01T22:07:41;100048.78;;;2.79;97.03
55757;BME280;41676;44.610;44.078;2023-02-01T22:12:41;100016.25;;;2.70;96.70
55757;BME280;41676;44.610;44.078;2023-02-01T22:17:42;100012.31;;;2.76;96.42
55757;BME280;41676;44.610;44.078;2023-02-01T22:22:46;100036.78;;;2.97;95.77
55757;BME280;41676;44.610;44.078;2023-02-01T22:27:47;100022.56;;;3.00;95.97
55757;BME280;41676;44.610;44.078;2023-02-01T22:32:48;100018.97;;;3.01;95.32
55757;BME280;41676;44.610;44.078;2023-02-01T22:37:49;100010.31;;;2.89;95.11
55757;BME280;41676;44.610;44.078;2023-02-01T22:42:49;99956.56;;;2.63;95.08
55757;BME280;41676;44.610;44.078;2023-02-01T22:47:50;100019.19;;;3.09;95.25
55757;BME280;41676;44.610;44.078;2023-02-01T22:52:52;100035.91;;;3.08;94.32
55757;BME280;41676;44.610;44.078;2023-02-01T22:57:52;99958.09;;;2.65;94.63
55757;BME280;41676;44.610;44.078;2023-02-01T23:02:53;100042.03;;;3.18;94.30
55757;BME280;41676;44.610;44.078;2023-02-01T23:07:54;100022.88;;;3.07;94.18
55757;BME280;41676;44.610;44.078;2023-02-01T23:12:55;100016.50;;;3.00;94.23
55757;BME280;41676;44.610;44.078;2023-02-01T23:17:56;99953.94;;;2.63;93.92
55757;BME280;41676;44.610;44.078;2023-02-01T23:22:56;99990.41;;;2.87;94.73
55757;BME280;41676;44.610;44.078;2023-02-01T23:27:57;99996.28;;;2.90;94.42
55757;BME280;41676;44.610;44.078;2023-02-01T23:32:58;99953.84;;;2.85;94.18
55757;BME280;41676;44.610;44.078;2023-02-01T23:37:59;99929.91;;;2.79;93.90
55757;BME280;41676;44.610;44.078;2023-02-01T23:43:00;100009.91;;;3.26;93.83
55757;BME280;41676;44.610;44.078;2023-02-01T23:48:19;100005.63;;;3.35;94.09
55757;BME280;41676;44.610;44.078;2023-02-01T23:53:20;99905.78;;;2.85;93.54
55757;BME280;41676;44.610;44.078;2023-02-01T23:58:22;99931.38;;;2.92;93.37
